Latest Weather Observations for Holsworthy

IDN60901

Issued at 1:31 pm EST Wednesday 1 June 2016 (issued every 10 minutes, with the page automatically refreshed every 10 minutes)

About weather observations | Map of Sydney area stations | Latest observations for Sydney area | Other Formats
Station Details ID: 066161 Name: HOLSWORTHY AERODROME AWS Lat: -33.99 Lon: 150.95 Height: 68.16 m
Data from the previous 72 hours. | See also: Recent months at Holsworthy
Date/Time
EST
Tmp

°C
App
Tmp
°C
Dew
Point
°C
Rel
Hum
%
Delta-T

°C
Wind Press
QNH
hPa
Press
MSL
hPa
Rain
since
9 am
mm
Dir
 
Spd
km/h
Gust
km/h
Spd
kts
Gust
kts
01/01:30pm 15.0 14.3 13.2 89 1.0 SSE 9 11 5 6 1026.9 1027.0 1.6
01/01:18pm 14.9 14.2 13.1 89 1.0 SE 9 13 5 7 1027.0 1027.1 1.6
01/01:00pm 14.7 13.8 12.7 88 1.1 E 9 11 5 6 1027.1 1027.2 1.2
01/12:57pm 14.9 14.5 12.9 88 1.1 ESE 7 11 4 6 1027.1 1027.2 1.0
01/12:30pm 15.4 14.4 12.3 82 1.7 SSE 9 13 5 7 1027.5 1027.6 0.2
01/12:00pm 16.0 14.9 11.8 76 2.3 SSW 9 11 5 6 1027.9 1028.0 0.2
01/11:36am 15.5 14.3 11.5 77 2.2 SSE 9 13 5 7 1028.3 1028.4 0.2
01/11:30am 15.6 14.9 12.0 79 2.0 S 7 13 4 7 1028.4 1028.5 0.2
01/11:21am 15.9 15.0 12.6 81 1.8 SSW 9 11 5 6 1028.5 1028.6 0.2
01/11:00am 15.8 14.9 12.5 81 1.8 SW 9 15 5 8 1028.7 1028.8 0.2
01/10:30am 14.9 14.6 12.8 87 1.2 SSW 6 9 3 5 1028.9 1029.0 0.2
01/10:00am 13.9 12.6 12.6 92 0.7 S 11 15 6 8 1029.0 1029.1 0.2
01/09:30am 13.5 12.2 12.6 94 0.5 SSE 11 15 6 8 1029.1 1029.1 0.2
01/09:00am 13.2 12.7 12.7 97 0.3 SW 7 11 4 6 1029.1 1029.1 2.2
01/08:30am 12.6 11.9 12.1 97 0.3 WSW 7 11 4 6 1028.8 1028.8 2.2
01/08:00am 12.1 12.6 11.6 97 0.3 CALM 0 0 0 0 1028.7 1028.7 2.2
01/07:30am 12.3 11.6 11.5 95 0.4 WSW 6 11 3 6 1028.5 1028.5 2.2
01/07:00am 12.3 11.1 11.5 95 0.4 S 9 15 5 8 1028.3 1028.3 2.0
01/06:30am 12.1 11.3 11.6 97 0.3 SSE 7 13 4 7 1028.3 1028.3 2.0
01/06:00am 11.6 9.9 11.3 98 0.2 SSW 11 15 6 8 1027.7 1027.7 2.0
01/05:30am 11.0 10.8 10.5 97 0.3 W 2 6 1 3 1027.9 1027.9 1.8
01/05:00am 11.1 10.0 10.8 98 0.2 WSW 7 9 4 5 1027.6 1027.6 1.8
01/04:30am 11.1 9.3 10.8 98 0.2 SW 11 13 6 7 1027.5 1027.5 1.8
01/04:00am 10.9 9.4 10.6 98 0.2 WSW 9 11 5 6 1027.5 1027.5 1.8
01/03:30am 10.8 9.7 10.5 98 0.2 WSW 7 7 4 4 1027.5 1027.5 1.8
01/03:00am 11.0 8.8 10.7 98 0.2 SW 13 15 7 8 1027.7 1027.7 1.8
01/02:30am 11.2 10.2 10.9 98 0.2 WSW 7 11 4 6 1027.8 1027.8 1.8
01/02:11am 11.1 9.7 10.8 98 0.2 WSW 9 13 5 7 1027.9 1027.9 1.8
01/02:00am 10.9 9.4 10.6 98 0.2 WSW 9 11 5 6 1028.1 1028.1 1.8
01/01:51am 10.7 9.5 10.4 98 0.2 W 7 9 4 5 1028.1 1028.1 1.8
01/01:42am 10.9 9.8 10.6 98 0.2 W 7 9 4 5 1028.2 1028.2 1.8
01/01:30am 10.9 9.4 10.6 98 0.2 W 9 11 5 6 1028.2 1028.2 1.8
01/01:24am 10.7 9.5 10.2 97 0.3 W 7 9 4 5 1028.3 1028.3 1.8
01/01:00am 11.0 9.1 10.5 97 0.3 WSW 11 13 6 7 1028.3 1028.3 1.8
01/12:30am 11.4 9.6 10.9 97 0.3 WSW 11 13 6 7 1028.5 1028.5 1.8
01/12:00am 11.7 10.4 11.2 97 0.3 WSW 9 13 5 7 1028.6 1028.6 1.8
 
Date/Time
EST
Tmp

°C
App
Tmp
°C
Dew
Point
°C
Rel
Hum
%
Delta-T

°C
Wind Press
QNH
hPa
Press
MSL
hPa
Rain
since
9 am
mm
Dir
 
Spd
km/h
Gust
km/h
Spd
kts
Gust
kts
31/11:30pm 12.0 10.4 11.5 97 0.3 SW 11 15 6 8 1028.9 1028.9 1.8
31/11:00pm 12.0 10.4 11.4 96 0.3 SW 11 13 6 7 1029.2 1029.2 1.8
31/10:30pm 12.1 10.9 11.5 96 0.3 WSW 9 13 5 7 1029.3 1029.3 1.8
31/10:00pm 12.2 11.0 11.6 96 0.3 SW 9 13 5 7 1029.3 1029.3 1.8
31/09:30pm 12.3 11.5 11.7 96 0.3 SSW 7 9 4 5 1029.6 1029.5 1.8
31/09:00pm 12.5 12.0 11.9 96 0.3 SW 6 9 3 5 1029.2 1029.2 1.8
31/08:30pm 12.6 12.0 11.8 95 0.4 SW 6 7 3 4 1029.1 1029.1 1.6
31/08:28pm 12.7 12.2 11.9 95 0.4 SSW 6 7 3 4 1029.1 1029.1 1.6
31/08:09pm 12.8 11.3 12.0 95 0.4 S 11 17 6 9 1029.3 1029.3 1.4
31/08:00pm 12.9 11.1 12.1 95 0.4 SSE 13 22 7 12 1029.3 1029.3 0.8
31/07:59pm 12.9 11.1 12.1 95 0.4 SSE 13 22 7 12 1029.3 1029.3 0.6
31/07:33pm 12.7 13.3 11.8 94 0.5 CALM 0 6 0 3 1029.1 1029.1 0.2
31/07:30pm 12.7 12.9 11.8 94 0.5 N 2 7 1 4 1029.1 1029.1 0.2
31/07:00pm 13.0 12.5 11.9 93 0.6 SSE 6 9 3 5 1028.8 1028.8 0.2
31/06:30pm 13.0 12.3 12.1 94 0.5 S 7 11 4 6 1028.6 1028.6 0.2
31/06:00pm 13.3 11.2 12.4 94 0.5 SSE 15 20 8 11 1028.4 1028.4 0.0
31/05:30pm 13.6 11.8 12.2 91 0.8 SSE 13 19 7 10 1028.2 1028.2 0.0
31/05:00pm 13.9 12.6 12.5 91 0.8 SSE 11 13 6 7 1028.0 1028.0 0.0
31/04:30pm 14.1 12.4 12.5 90 0.9 SSE 13 17 7 9 1027.8 1027.8 0.0
31/04:00pm 14.4 13.1 12.6 89 1.0 SSE 11 15 6 8 1027.7 1027.7 0.0
31/03:30pm 14.8 13.6 12.7 87 1.2 ESE 11 13 6 7 1027.7 1027.7 0.0
31/03:00pm 15.1 13.3 12.2 83 1.6 E 13 17 7 9 1027.5 1027.5 0.0
31/02:30pm 15.4 13.6 12.0 80 1.9 ENE 13 20 7 11 1027.5 1027.5 0.0
31/02:00pm 16.0 13.5 11.0 72 2.7 E 15 24 8 13 1027.3 1027.3 0.0
31/01:30pm 15.9 13.0 11.1 73 2.6 ESE 17 24 9 13 1027.6 1027.6 0.0
31/01:00pm 15.8 12.5 10.8 72 2.6 ESE 19 26 10 14 1027.8 1027.8 0.0
31/12:30pm 16.7 13.8 11.0 69 3.1 SE 17 22 9 12 1027.9 1027.9 0.0
31/12:00pm 16.8 14.8 11.5 71 2.9 SSE 13 19 7 10 1028.2 1028.2 0.0
31/11:30am 16.7 15.6 11.8 73 2.7 ESE 9 20 5 11 1028.6 1028.6 0.0
31/11:00am 15.0 14.2 11.8 81 1.7 W 7 9 4 5 1029.0 1029.0 0.0
31/10:30am 13.9 12.2 11.2 84 1.4 SW 11 13 6 7 1029.4 1029.4 0.0
31/10:00am 13.2 12.2 11.1 87 1.1 WSW 7 11 4 6 1029.6 1029.5 0.0
31/09:30am 12.1 10.2 10.5 90 0.8 WSW 11 15 6 8 1029.4 1029.4 0.0
31/09:00am 11.1 9.0 9.9 92 0.6 WSW 11 15 6 8 1029.6 1029.5 0.6
31/08:30am 10.0 7.8 9.4 96 0.3 WSW 11 15 6 8 1029.4 1029.4 0.6
31/08:00am 9.5 6.4 8.7 95 0.4 SW 15 19 8 10 1029.0 1029.0 0.6
31/07:30am 8.9 6.0 8.1 95 0.4 WSW 13 19 7 10 1028.9 1028.9 0.6
31/07:29am 8.9 6.0 8.1 95 0.4 WSW 13 19 7 10 1028.9 1028.9 0.6
31/07:00am 8.9 5.5 7.8 93 0.5 SW 15 20 8 11 1028.8 1028.8 0.2
31/06:58am 9.0 5.6 7.8 92 0.6 SW 15 20 8 11 1028.9 1028.9 0.0
31/06:30am 8.4 5.3 7.2 92 0.6 WSW 13 15 7 8 1028.5 1028.5 0.0
31/06:00am 8.2 5.0 6.8 91 0.6 WSW 13 15 7 8 1028.0 1028.0 0.0
31/05:30am 8.3 5.2 7.1 92 0.6 SW 13 19 7 10 1027.7 1027.7 0.0
31/05:00am 7.0 3.6 6.1 94 0.4 WSW 13 17 7 9 1027.4 1027.4 0.0
31/04:30am 6.9 3.5 5.8 93 0.5 WSW 13 17 7 9 1027.2 1027.2 0.0
31/04:00am 7.0 3.6 5.9 93 0.5 SW 13 17 7 9 1027.3 1027.3 0.0
31/03:30am 6.3 2.8 5.3 93 0.4 WSW 13 15 7 8 1027.3 1027.3 0.0
31/03:00am 6.7 3.2 5.5 92 0.5 WSW 13 15 7 8 1027.4 1027.4 0.0
31/02:30am 6.4 3.2 5.2 92 0.5 WSW 11 13 6 7 1027.3 1027.3 0.0
31/02:00am 6.7 3.5 5.2 90 0.7 WSW 11 13 6 7 1027.3 1027.3 0.0
31/01:30am 7.2 3.7 5.3 88 0.8 SW 13 15 7 8 1027.4 1027.4 0.0
31/01:00am 7.1 3.6 5.4 89 0.8 SW 13 17 7 9 1027.5 1027.5 0.0
31/12:30am 7.0 3.4 5.2 88 0.8 SW 13 17 7 9 1027.4 1027.4 0.0
31/12:00am 6.9 3.3 5.1 88 0.8 SW 13 19 7 10 1027.6 1027.6 0.0
 
Date/Time
EST
Tmp

°C
App
Tmp
°C
Dew
Point
°C
Rel
Hum
%
Delta-T

°C
Wind Press
QNH
hPa
Press
MSL
hPa
Rain
since
9 am
mm
Dir
 
Spd
km/h
Gust
km/h
Spd
kts
Gust
kts
30/11:30pm 6.8 3.2 4.8 87 0.9 WSW 13 17 7 9 1027.6 1027.6 0.0
30/11:00pm 7.0 3.8 5.2 88 0.8 SW 11 13 6 7 1027.7 1027.7 0.0
30/10:30pm 6.4 3.4 4.2 86 0.9 WSW 9 11 5 6 1027.5 1027.5 0.0
30/10:00pm 7.8 4.2 5.1 83 1.2 SW 13 15 7 8 1027.4 1027.4 0.0
30/09:30pm 7.8 4.6 5.1 83 1.2 SW 11 13 6 7 1027.3 1027.3 0.0
30/09:00pm 8.2 4.7 5.5 83 1.2 WSW 13 15 7 8 1027.0 1027.0 0.0
30/08:30pm 7.9 4.7 5.2 83 1.2 WSW 11 13 6 7 1027.0 1027.0 0.0
30/08:00pm 7.8 4.9 4.7 81 1.4 SW 9 9 5 5 1026.9 1026.9 0.0
30/07:30pm 10.9 7.8 5.4 69 2.5 S 11 15 6 8 1026.6 1026.6 0.0
30/07:00pm 12.1 8.8 6.4 68 2.7 S 13 24 7 13 1026.3 1026.3 0.0
30/06:30pm 11.2 8.6 6.3 72 2.3 SSE 9 11 5 6 1026.2 1026.2 0.0
30/06:00pm 12.4 9.5 6.7 68 2.7 SSE 11 13 6 7 1025.9 1025.9 0.0
30/05:30pm 12.5 9.8 5.7 63 3.2 SSE 9 13 5 7 1025.6 1025.6 0.0
30/05:00pm 14.0 10.8 5.1 55 4.1 SSE 11 15 6 8 1025.3 1025.3 0.0
30/04:30pm 15.6 12.6 4.0 46 5.4 SSE 9 15 5 8 1024.8 1024.8 0.0
30/04:00pm 16.7 12.7 2.7 39 6.3 SSE 13 17 7 9 1024.6 1024.6 0.0
30/03:30pm 17.3 13.0 0.9 33 7.2 SE 13 17 7 9 1024.3 1024.3 0.0
30/03:00pm 17.5 13.3 1.5 34 7.1 SE 13 17 7 9 1024.1 1024.1 0.0
30/02:30pm 18.1 14.9 2.8 36 7.1 ESE 9 13 5 7 1024.0 1024.0 0.0
30/02:00pm 17.7 15.0 2.5 36 6.9 S 6 9 3 5 1023.9 1023.9 0.0
30/01:30pm 18.0 14.8 3.1 37 6.9 W 9 17 5 9 1023.9 1023.9 0.0
30/01:00pm 17.6 14.5 3.5 39 6.5 NW 9 15 5 8 1024.0 1024.0 0.0
30/12:30pm 17.4 14.4 4.0 41 6.3 WNW 9 15 5 8 1024.3 1024.3 0.0
30/12:00pm 16.5 13.5 3.9 43 5.8 NW 9 15 5 8 1024.6 1024.6 0.0
30/11:30am 15.8 12.8 4.2 46 5.4 WNW 9 15 5 8 1025.1 1025.1 0.0
30/11:00am 14.5 11.1 4.2 50 4.7 WNW 11 17 6 9 1025.5 1025.5 0.0
30/10:30am 13.6 10.2 4.2 53 4.3 W 11 17 6 9 1025.8 1025.8 0.0
30/10:00am 12.2 8.3 3.4 55 3.9 W 13 19 7 10 1025.9 1025.9 0.0
30/09:30am 11.0 6.4 3.5 60 3.3 WSW 17 24 9 13 1025.8 1025.8 0.0
30/09:00am 9.7 4.6 3.0 63 2.9 WSW 19 24 10 13 1025.4 1025.4 0.2
30/08:30am 8.6 3.9 3.0 68 2.4 WSW 17 24 9 13 1025.2 1025.2 0.2
30/08:00am 7.2 2.8 2.7 73 1.9 WSW 15 19 8 10 1025.0 1025.0 0.2
30/07:30am 5.9 1.8 2.2 77 1.5 WSW 13 17 7 9 1024.6 1024.6 0.2
30/07:00am 5.2 1.0 1.9 79 1.3 WSW 13 17 7 9 1024.3 1024.3 0.2
30/06:30am 5.4 1.2 1.9 78 1.4 WSW 13 15 7 8 1023.8 1023.8 0.2
30/06:00am 5.6 1.1 1.9 77 1.5 WSW 15 20 8 11 1023.4 1023.4 0.2
30/05:30am 6.1 1.2 2.0 75 1.7 WSW 17 22 9 12 1023.0 1023.0 0.2
30/05:00am 6.2 1.3 1.9 74 1.7 WSW 17 20 9 11 1022.7 1022.7 0.2
30/04:30am 6.0 1.5 1.9 75 1.7 WSW 15 20 8 11 1022.4 1022.4 0.2
30/04:00am 6.2 1.7 1.9 74 1.7 WSW 15 20 8 11 1022.1 1022.1 0.2
30/03:30am 6.2 2.0 1.7 73 1.8 WSW 13 17 7 9 1022.1 1022.1 0.2
30/03:00am 6.4 2.2 1.7 72 1.9 WSW 13 17 7 9 1022.0 1022.0 0.2
30/02:30am 6.5 2.3 1.6 71 2.0 WSW 13 17 7 9 1021.9 1021.9 0.2
30/02:00am 6.9 2.7 1.8 70 2.1 SW 13 17 7 9 1021.9 1021.9 0.2
30/01:30am 7.0 2.8 1.9 70 2.1 WSW 13 17 7 9 1021.8 1021.8 0.2
30/01:00am 6.7 2.9 1.8 71 2.0 WSW 11 17 6 9 1021.6 1021.5 0.2
30/12:30am 6.2 2.8 1.9 74 1.7 WSW 9 15 5 8 1021.5 1021.4 0.2
30/12:00am 4.7 1.3 1.9 82 1.1 WSW 9 13 5 7 1021.5 1021.4 0.2
 
Date/Time
EST
Tmp

°C
App
Tmp
°C
Dew
Point
°C
Rel
Hum
%
Delta-T

°C
Wind Press
QNH
hPa
Press
MSL
hPa
Rain
since
9 am
mm
Dir
 
Spd
km/h
Gust
km/h
Spd
kts
Gust
kts
29/11:30pm 4.9 1.5 1.9 81 1.2 W 9 13 5 7 1021.5 1021.4 0.2
29/11:00pm 6.6 3.6 2.3 74 1.8 SSW 7 9 4 5 1021.2 1021.1 0.2
29/10:30pm 6.6 3.2 2.1 73 1.8 SW 9 13 5 7 1021.2 1021.1 0.2
29/10:00pm 7.0 3.6 1.9 70 2.1 SW 9 11 5 6 1021.2 1021.1 0.2
29/09:30pm 8.5 4.8 2.3 65 2.6 WSW 11 15 6 8 1021.0 1020.9 0.2
29/09:00pm 8.5 4.8 2.3 65 2.6 SW 11 15 6 8 1020.9 1020.8 0.2
29/08:30pm 8.5 4.8 2.1 64 2.7 SW 11 15 6 8 1020.8 1020.7 0.2
29/08:00pm 10.2 6.5 2.1 57 3.4 SW 11 17 6 9 1020.3 1020.2 0.2
29/07:30pm 10.5 6.7 1.9 55 3.6 SSW 11 17 6 9 1019.8 1019.7 0.2
29/07:00pm 10.6 7.1 1.4 53 3.8 SW 9 13 5 7 1019.4 1019.3 0.2
29/06:30pm 11.6 8.1 1.0 48 4.4 SW 9 13 5 7 1019.0 1018.9 0.2
29/06:00pm 12.7 8.8 1.4 46 4.8 SSW 11 13 6 7 1018.6 1018.5 0.2
29/05:30pm 11.7 8.6 1.1 48 4.5 SW 7 9 4 5 1018.2 1018.1 0.2
29/05:00pm 14.5 11.5 1.1 40 5.8 SW 6 7 3 4 1017.7 1017.6 0.2
29/04:30pm 16.9 13.0 1.4 35 6.9 SW 11 17 6 9 1017.3 1017.2 0.2
29/04:00pm 17.9 13.5 0.6 31 7.6 SW 13 20 7 11 1016.8 1016.7 0.2
29/03:30pm 18.7 15.1 0.8 30 8.0 W 9 13 5 7 1016.5 1016.4 0.2
29/03:00pm 18.3 13.5 0.4 30 7.9 SW 15 26 8 14 1016.4 1016.3 0.2
29/02:30pm 18.5 13.9 1.5 32 7.7 WSW 15 24 8 13 1016.3 1016.2 0.2
29/02:00pm 18.0 13.8 1.9 34 7.3 W 13 20 7 11 1016.2 1016.1 0.2

Latest Capital City Observations: Canberra | Sydney | Melbourne | Brisbane | Adelaide | Perth | Hobart | Darwin

Other Formats:

Comma delimited format used in spreadsheet applications
http://www.bom.gov.au/fwo/IDN60901/IDN60901.95761.axf

JavaScript Object Notation format (JSON) in row-major order
http://www.bom.gov.au/fwo/IDN60901/IDN60901.95761.json